Webcam Flughafen St.Gallen-Altenrhein

Live-Bilder und Zeitraffer LSZR / ACH.

 

Live aus Altenrhein
LIVE
LSZR 161850Z VRB02KT CAVOK 11/09 Q1019 NOSIG RMK O
Zeitraffer heute
2018-10-16 00:00:00
LSZR 152150Z AUTO VRB02KT CAVOK 14/06 Q1016
Zeitraffer gestern
2018-10-15 00:14:42
LSZR 142150Z AUTO 18014G32KT 120V220 CAVOK 21/02 Q1013
Zeitraffer vor 3 Tagen
2018-10-13 00:14:49
LSZR 122150Z AUTO 23003KT 200V260 CAVOK 12/11 Q1025